sensor_id;sensor_type;location;lat;lon;timestamp;temperature;humidity
49379;DHT22;35254;47.990;-1.608;2023-07-29T00:01:11;24.50;64.80
49379;DHT22;35254;47.990;-1.608;2023-07-29T00:03:37;24.50;64.60
49379;DHT22;35254;47.990;-1.608;2023-07-29T00:06:03;24.50;64.70
49379;DHT22;35254;47.990;-1.608;2023-07-29T00:08:28;24.50;64.50
49379;DHT22;35254;47.990;-1.608;2023-07-29T00:10:54;24.60;64.50
49379;DHT22;35254;47.990;-1.608;2023-07-29T00:13:20;24.50;64.50
49379;DHT22;35254;47.990;-1.608;2023-07-29T00:15:46;24.60;64.50
49379;DHT22;35254;47.990;-1.608;2023-07-29T00:18:11;24.60;64.60
49379;DHT22;35254;47.990;-1.608;2023-07-29T00:20:37;24.50;64.30
49379;DHT22;35254;47.990;-1.608;2023-07-29T00:23:03;24.60;64.20
49379;DHT22;35254;47.990;-1.608;2023-07-29T00:25:28;24.50;64.40
49379;DHT22;35254;47.990;-1.608;2023-07-29T00:27:55;24.50;64.30
49379;DHT22;35254;47.990;-1.608;2023-07-29T00:30:21;24.50;64.40
49379;DHT22;35254;47.990;-1.608;2023-07-29T00:32:47;24.50;64.10
49379;DHT22;35254;47.990;-1.608;2023-07-29T00:35:12;24.50;64.50
49379;DHT22;35254;47.990;-1.608;2023-07-29T00:37:38;24.50;64.30
49379;DHT22;35254;47.990;-1.608;2023-07-29T00:40:15;24.50;64.30
49379;DHT22;35254;47.990;-1.608;2023-07-29T00:42:44;24.40;64.40
49379;DHT22;35254;47.990;-1.608;2023-07-29T00:45:10;24.40;64.20
49379;DHT22;35254;47.990;-1.608;2023-07-29T00:47:35;24.50;64.40
49379;DHT22;35254;47.990;-1.608;2023-07-29T00:50:01;24.40;64.50
49379;DHT22;35254;47.990;-1.608;2023-07-29T00:52:27;24.40;64.60
49379;DHT22;35254;47.990;-1.608;2023-07-29T00:54:53;24.40;64.40
49379;DHT22;35254;47.990;-1.608;2023-07-29T00:57:19;24.40;64.40
49379;DHT22;35254;47.990;-1.608;2023-07-29T00:59:46;24.40;64.50
49379;DHT22;35254;47.990;-1.608;2023-07-29T01:02:12;24.40;64.50
49379;DHT22;35254;47.990;-1.608;2023-07-29T01:04:38;24.40;64.50
49379;DHT22;35254;47.990;-1.608;2023-07-29T01:07:39;24.40;64.50
49379;DHT22;35254;47.990;-1.608;2023-07-29T01:10:39;24.40;64.50
49379;DHT22;35254;47.990;-1.608;2023-07-29T01:18:18;24.40;64.20
49379;DHT22;35254;47.990;-1.608;2023-07-29T01:20:47;24.40;64.60
49379;DHT22;35254;47.990;-1.608;2023-07-29T01:23:13;24.40;64.20
49379;DHT22;35254;47.990;-1.608;2023-07-29T01:25:41;24.40;64.60
49379;DHT22;35254;47.990;-1.608;2023-07-29T01:28:06;24.30;64.40
49379;DHT22;35254;47.990;-1.608;2023-07-29T01:30:42;24.40;64.60
49379;DHT22;35254;47.990;-1.608;2023-07-29T01:33:16;24.40;64.50
49379;DHT22;35254;47.990;-1.608;2023-07-29T01:36:03;24.30;64.50
49379;DHT22;35254;47.990;-1.608;2023-07-29T01:38:36;24.40;64.40
49379;DHT22;35254;47.990;-1.608;2023-07-29T01:41:02;24.30;64.50
49379;DHT22;35254;47.990;-1.608;2023-07-29T01:43:29;24.30;64.40
49379;DHT22;35254;47.990;-1.608;2023-07-29T01:45:56;24.30;64.50
49379;DHT22;35254;47.990;-1.608;2023-07-29T01:48:22;24.30;64.40
49379;DHT22;35254;47.990;-1.608;2023-07-29T01:50:47;24.30;64.60
49379;DHT22;35254;47.990;-1.608;2023-07-29T01:53:13;24.30;64.50
49379;DHT22;35254;47.990;-1.608;2023-07-29T01:55:39;24.30;64.60
49379;DHT22;35254;47.990;-1.608;2023-07-29T01:58:05;24.30;64.50
49379;DHT22;35254;47.990;-1.608;2023-07-29T02:00:30;24.30;64.50
49379;DHT22;35254;47.990;-1.608;2023-07-29T02:02:56;24.30;64.40
49379;DHT22;35254;47.990;-1.608;2023-07-29T02:05:21;24.30;64.50
49379;DHT22;35254;47.990;-1.608;2023-07-29T02:07:47;24.30;64.40
49379;DHT22;35254;47.990;-1.608;2023-07-29T02:10:13;24.30;64.50
49379;DHT22;35254;47.990;-1.608;2023-07-29T02:12:38;24.30;64.60
49379;DHT22;35254;47.990;-1.608;2023-07-29T02:15:04;24.30;64.50
49379;DHT22;35254;47.990;-1.608;2023-07-29T02:17:31;24.30;64.50
49379;DHT22;35254;47.990;-1.608;2023-07-29T02:19:56;24.30;64.40
49379;DHT22;35254;47.990;-1.608;2023-07-29T02:22:22;24.30;64.40
49379;DHT22;35254;47.990;-1.608;2023-07-29T02:24:48;24.30;64.40
49379;DHT22;35254;47.990;-1.608;2023-07-29T02:27:13;24.30;64.40
49379;DHT22;35254;47.990;-1.608;2023-07-29T02:29:39;24.30;64.80
49379;DHT22;35254;47.990;-1.608;2023-07-29T02:32:04;24.30;64.50
49379;DHT22;35254;47.990;-1.608;2023-07-29T02:34:30;24.30;64.50
49379;DHT22;35254;47.990;-1.608;2023-07-29T02:36:56;24.30;64.40
49379;DHT22;35254;47.990;-1.608;2023-07-29T02:39:22;24.30;64.40
49379;DHT22;35254;47.990;-1.608;2023-07-29T02:41:48;24.20;64.60
49379;DHT22;35254;47.990;-1.608;2023-07-29T02:44:15;24.20;64.30
49379;DHT22;35254;47.990;-1.608;2023-07-29T02:46:40;24.20;64.40
49379;DHT22;35254;47.990;-1.608;2023-07-29T02:49:06;24.20;64.60
49379;DHT22;35254;47.990;-1.608;2023-07-29T02:51:31;24.30;64.60
49379;DHT22;35254;47.990;-1.608;2023-07-29T02:53:57;24.20;64.40
49379;DHT22;35254;47.990;-1.608;2023-07-29T02:56:23;24.20;64.60
49379;DHT22;35254;47.990;-1.608;2023-07-29T02:58:49;24.20;64.60
49379;DHT22;35254;47.990;-1.608;2023-07-29T03:01:17;24.20;64.60
49379;DHT22;35254;47.990;-1.608;2023-07-29T03:03:42;24.20;64.70
49379;DHT22;35254;47.990;-1.608;2023-07-29T03:06:09;24.20;64.70
49379;DHT22;35254;47.990;-1.608;2023-07-29T03:08:35;24.20;64.60
49379;DHT22;35254;47.990;-1.608;2023-07-29T03:11:15;24.20;64.60
49379;DHT22;35254;47.990;-1.608;2023-07-29T03:13:41;24.20;64.80
49379;DHT22;35254;47.990;-1.608;2023-07-29T03:16:08;24.20;64.70
49379;DHT22;35254;47.990;-1.608;2023-07-29T03:18:34;24.20;64.70
49379;DHT22;35254;47.990;-1.608;2023-07-29T03:21:01;24.20;64.60
49379;DHT22;35254;47.990;-1.608;2023-07-29T03:23:27;24.20;64.70
49379;DHT22;35254;47.990;-1.608;2023-07-29T03:25:58;24.20;64.70
49379;DHT22;35254;47.990;-1.608;2023-07-29T03:28:26;24.20;64.70
49379;DHT22;35254;47.990;-1.608;2023-07-29T03:30:56;24.20;64.70
49379;DHT22;35254;47.990;-1.608;2023-07-29T03:33:22;24.20;64.50
49379;DHT22;35254;47.990;-1.608;2023-07-29T03:35:47;24.20;64.70
49379;DHT22;35254;47.990;-1.608;2023-07-29T03:38:13;24.20;64.80
49379;DHT22;35254;47.990;-1.608;2023-07-29T03:40:39;24.20;64.80
49379;DHT22;35254;47.990;-1.608;2023-07-29T03:43:05;24.20;64.90
49379;DHT22;35254;47.990;-1.608;2023-07-29T03:45:31;24.20;64.80
49379;DHT22;35254;47.990;-1.608;2023-07-29T03:47:57;24.20;64.90
49379;DHT22;35254;47.990;-1.608;2023-07-29T03:50:22;24.20;65.00
49379;DHT22;35254;47.990;-1.608;2023-07-29T03:52:48;24.20;64.90
49379;DHT22;35254;47.990;-1.608;2023-07-29T03:55:14;24.10;65.10
49379;DHT22;35254;47.990;-1.608;2023-07-29T03:57:39;24.10;65.10
49379;DHT22;35254;47.990;-1.608;2023-07-29T04:00:05;24.10;64.90
49379;DHT22;35254;47.990;-1.608;2023-07-29T04:02:31;24.10;65.00
49379;DHT22;35254;47.990;-1.608;2023-07-29T04:04:57;24.20;65.10
49379;DHT22;35254;47.990;-1.608;2023-07-29T04:07:22;24.10;65.10
49379;DHT22;35254;47.990;-1.608;2023-07-29T04:09:48;24.20;65.20
49379;DHT22;35254;47.990;-1.608;2023-07-29T04:12:15;24.10;65.30
49379;DHT22;35254;47.990;-1.608;2023-07-29T04:14:41;24.10;65.20
49379;DHT22;35254;47.990;-1.608;2023-07-29T04:17:07;24.10;65.10
49379;DHT22;35254;47.990;-1.608;2023-07-29T04:19:33;24.10;65.20
49379;DHT22;35254;47.990;-1.608;2023-07-29T04:21:59;24.10;65.20
49379;DHT22;35254;47.990;-1.608;2023-07-29T04:24:24;24.10;65.10
49379;DHT22;35254;47.990;-1.608;2023-07-29T04:26:50;24.10;65.20
49379;DHT22;35254;47.990;-1.608;2023-07-29T04:29:16;24.10;65.20
49379;DHT22;35254;47.990;-1.608;2023-07-29T04:31:42;24.10;65.30
49379;DHT22;35254;47.990;-1.608;2023-07-29T04:34:08;24.10;65.20
49379;DHT22;35254;47.990;-1.608;2023-07-29T04:36:34;24.10;65.20
49379;DHT22;35254;47.990;-1.608;2023-07-29T04:39:00;24.10;65.40
49379;DHT22;35254;47.990;-1.608;2023-07-29T04:41:26;24.10;65.20
49379;DHT22;35254;47.990;-1.608;2023-07-29T04:43:51;24.10;65.20
49379;DHT22;35254;47.990;-1.608;2023-07-29T04:46:18;24.10;65.20
49379;DHT22;35254;47.990;-1.608;2023-07-29T04:48:43;24.10;65.10
49379;DHT22;35254;47.990;-1.608;2023-07-29T04:51:09;24.10;65.20
49379;DHT22;35254;47.990;-1.608;2023-07-29T04:53:34;24.10;65.20
49379;DHT22;35254;47.990;-1.608;2023-07-29T04:56:02;24.10;65.30
49379;DHT22;35254;47.990;-1.608;2023-07-29T04:58:28;24.10;65.40
49379;DHT22;35254;47.990;-1.608;2023-07-29T05:00:55;24.00;65.40
49379;DHT22;35254;47.990;-1.608;2023-07-29T05:03:21;24.00;65.50
49379;DHT22;35254;47.990;-1.608;2023-07-29T05:05:46;24.10;65.30
49379;DHT22;35254;47.990;-1.608;2023-07-29T05:08:12;24.10;65.30
49379;DHT22;35254;47.990;-1.608;2023-07-29T05:10:37;24.10;65.30
49379;DHT22;35254;47.990;-1.608;2023-07-29T05:13:03;24.10;65.40
49379;DHT22;35254;47.990;-1.608;2023-07-29T05:15:29;24.00;65.50
49379;DHT22;35254;47.990;-1.608;2023-07-29T05:17:54;24.00;65.60
49379;DHT22;35254;47.990;-1.608;2023-07-29T05:20:20;24.00;65.30
49379;DHT22;35254;47.990;-1.608;2023-07-29T05:22:45;24.10;65.50
49379;DHT22;35254;47.990;-1.608;2023-07-29T05:25:11;24.00;65.40
49379;DHT22;35254;47.990;-1.608;2023-07-29T05:27:37;24.00;65.50
49379;DHT22;35254;47.990;-1.608;2023-07-29T05:30:02;24.10;65.40
49379;DHT22;35254;47.990;-1.608;2023-07-29T05:32:28;24.00;65.40
49379;DHT22;35254;47.990;-1.608;2023-07-29T05:34:55;24.00;65.30
49379;DHT22;35254;47.990;-1.608;2023-07-29T05:37:20;24.00;65.40
49379;DHT22;35254;47.990;-1.608;2023-07-29T05:39:46;24.00;65.40
49379;DHT22;35254;47.990;-1.608;2023-07-29T05:42:11;24.00;65.40
49379;DHT22;35254;47.990;-1.608;2023-07-29T05:44:37;24.00;65.30
49379;DHT22;35254;47.990;-1.608;2023-07-29T05:47:03;24.00;65.40
49379;DHT22;35254;47.990;-1.608;2023-07-29T05:49:28;23.90;65.30
49379;DHT22;35254;47.990;-1.608;2023-07-29T05:51:54;23.90;65.30
49379;DHT22;35254;47.990;-1.608;2023-07-29T05:54:20;24.00;65.40
49379;DHT22;35254;47.990;-1.608;2023-07-29T05:56:45;23.90;65.50
49379;DHT22;35254;47.990;-1.608;2023-07-29T05:59:11;23.90;65.30
49379;DHT22;35254;47.990;-1.608;2023-07-29T06:01:36;24.00;65.40
49379;DHT22;35254;47.990;-1.608;2023-07-29T06:04:02;23.90;65.50
49379;DHT22;35254;47.990;-1.608;2023-07-29T06:06:28;23.90;65.40
49379;DHT22;35254;47.990;-1.608;2023-07-29T06:08:53;24.00;65.40
49379;DHT22;35254;47.990;-1.608;2023-07-29T06:11:19;23.90;65.40
49379;DHT22;35254;47.990;-1.608;2023-07-29T06:13:47;23.90;65.50
49379;DHT22;35254;47.990;-1.608;2023-07-29T06:16:12;23.90;65.50
49379;DHT22;35254;47.990;-1.608;2023-07-29T06:18:38;23.90;65.60
49379;DHT22;35254;47.990;-1.608;2023-07-29T06:21:04;23.90;65.40
49379;DHT22;35254;47.990;-1.608;2023-07-29T06:23:35;23.90;65.60
49379;DHT22;35254;47.990;-1.608;2023-07-29T06:26:01;23.90;65.50
49379;DHT22;35254;47.990;-1.608;2023-07-29T06:28:27;23.90;65.50
49379;DHT22;35254;47.990;-1.608;2023-07-29T06:30:52;23.90;65.50
49379;DHT22;35254;47.990;-1.608;2023-07-29T06:33:18;23.90;65.50
49379;DHT22;35254;47.990;-1.608;2023-07-29T06:35:44;23.90;65.60
49379;DHT22;35254;47.990;-1.608;2023-07-29T06:38:09;23.90;65.70
49379;DHT22;35254;47.990;-1.608;2023-07-29T06:40:35;23.90;65.80
49379;DHT22;35254;47.990;-1.608;2023-07-29T06:43:01;23.90;65.90
49379;DHT22;35254;47.990;-1.608;2023-07-29T06:45:26;23.90;65.90
49379;DHT22;35254;47.990;-1.608;2023-07-29T06:47:52;23.90;66.00
49379;DHT22;35254;47.990;-1.608;2023-07-29T06:50:18;23.90;65.90
49379;DHT22;35254;47.990;-1.608;2023-07-29T06:52:44;23.90;65.90
49379;DHT22;35254;47.990;-1.608;2023-07-29T06:55:10;23.90;66.00
49379;DHT22;35254;47.990;-1.608;2023-07-29T06:57:35;23.90;66.00
49379;DHT22;35254;47.990;-1.608;2023-07-29T07:00:01;23.90;66.10
49379;DHT22;35254;47.990;-1.608;2023-07-29T07:02:28;23.90;66.10
49379;DHT22;35254;47.990;-1.608;2023-07-29T07:04:53;23.90;66.10
49379;DHT22;35254;47.990;-1.608;2023-07-29T07:07:19;23.90;66.00
49379;DHT22;35254;47.990;-1.608;2023-07-29T07:09:44;23.90;66.10
49379;DHT22;35254;47.990;-1.608;2023-07-29T07:12:10;23.90;66.10
49379;DHT22;35254;47.990;-1.608;2023-07-29T07:14:36;23.80;66.10
49379;DHT22;35254;47.990;-1.608;2023-07-29T07:17:02;23.90;66.10
49379;DHT22;35254;47.990;-1.608;2023-07-29T07:19:28;23.90;66.30
49379;DHT22;35254;47.990;-1.608;2023-07-29T07:21:53;23.80;66.20
49379;DHT22;35254;47.990;-1.608;2023-07-29T07:24:19;23.90;66.30
49379;DHT22;35254;47.990;-1.608;2023-07-29T07:26:44;23.90;66.40
49379;DHT22;35254;47.990;-1.608;2023-07-29T07:29:10;23.90;66.40
49379;DHT22;35254;47.990;-1.608;2023-07-29T07:31:36;23.90;66.30
49379;DHT22;35254;47.990;-1.608;2023-07-29T07:34:01;23.80;66.50
49379;DHT22;35254;47.990;-1.608;2023-07-29T07:36:28;23.80;66.40
49379;DHT22;35254;47.990;-1.608;2023-07-29T07:38:54;23.80;66.30
49379;DHT22;35254;47.990;-1.608;2023-07-29T07:41:20;23.90;66.30
49379;DHT22;35254;47.990;-1.608;2023-07-29T07:43:45;23.80;66.40
49379;DHT22;35254;47.990;-1.608;2023-07-29T07:46:11;23.80;66.40
49379;DHT22;35254;47.990;-1.608;2023-07-29T07:48:38;23.90;66.40
49379;DHT22;35254;47.990;-1.608;2023-07-29T07:51:13;23.90;66.30
49379;DHT22;35254;47.990;-1.608;2023-07-29T07:53:39;23.80;66.30
49379;DHT22;35254;47.990;-1.608;2023-07-29T07:56:05;23.80;66.30
49379;DHT22;35254;47.990;-1.608;2023-07-29T07:58:31;23.80;66.30
49379;DHT22;35254;47.990;-1.608;2023-07-29T08:01:07;23.80;66.30
49379;DHT22;35254;47.990;-1.608;2023-07-29T08:03:33;23.80;66.40
49379;DHT22;35254;47.990;-1.608;2023-07-29T08:05:59;23.80;66.30
49379;DHT22;35254;47.990;-1.608;2023-07-29T08:08:25;23.80;66.40
49379;DHT22;35254;47.990;-1.608;2023-07-29T08:10:53;23.80;66.50
49379;DHT22;35254;47.990;-1.608;2023-07-29T08:13:20;23.80;66.50
49379;DHT22;35254;47.990;-1.608;2023-07-29T08:15:51;23.80;66.60
49379;DHT22;35254;47.990;-1.608;2023-07-29T08:18:17;23.80;66.60
49379;DHT22;35254;47.990;-1.608;2023-07-29T08:20:56;23.70;66.30
49379;DHT22;35254;47.990;-1.608;2023-07-29T08:23:24;23.70;65.90
49379;DHT22;35254;47.990;-1.608;2023-07-29T08:25:54;23.70;65.60
49379;DHT22;35254;47.990;-1.608;2023-07-29T08:28:22;23.70;65.40
49379;DHT22;35254;47.990;-1.608;2023-07-29T08:30:47;23.80;65.30
49379;DHT22;35254;47.990;-1.608;2023-07-29T08:33:13;23.70;65.20
49379;DHT22;35254;47.990;-1.608;2023-07-29T08:35:38;23.70;65.10
49379;DHT22;35254;47.990;-1.608;2023-07-29T08:38:04;23.70;65.00
49379;DHT22;35254;47.990;-1.608;2023-07-29T08:40:30;23.70;65.00
49379;DHT22;35254;47.990;-1.608;2023-07-29T08:42:58;23.70;64.80
49379;DHT22;35254;47.990;-1.608;2023-07-29T08:45:26;23.70;64.80
49379;DHT22;35254;47.990;-1.608;2023-07-29T08:47:54;23.70;64.70
49379;DHT22;35254;47.990;-1.608;2023-07-29T08:50:24;23.70;64.90
49379;DHT22;35254;47.990;-1.608;2023-07-29T08:52:52;23.70;64.90
49379;DHT22;35254;47.990;-1.608;2023-07-29T08:55:18;23.70;65.10
49379;DHT22;35254;47.990;-1.608;2023-07-29T08:57:44;23.70;65.00
49379;DHT22;35254;47.990;-1.608;2023-07-29T09:00:11;23.70;65.00
49379;DHT22;35254;47.990;-1.608;2023-07-29T09:02:38;23.70;65.00
49379;DHT22;35254;47.990;-1.608;2023-07-29T09:05:04;23.70;65.00
49379;DHT22;35254;47.990;-1.608;2023-07-29T09:07:30;23.70;65.00
49379;DHT22;35254;47.990;-1.608;2023-07-29T09:09:58;23.70;65.00
49379;DHT22;35254;47.990;-1.608;2023-07-29T09:12:24;23.70;65.00
49379;DHT22;35254;47.990;-1.608;2023-07-29T09:14:52;23.70;64.70
49379;DHT22;35254;47.990;-1.608;2023-07-29T09:17:18;23.60;64.60
49379;DHT22;35254;47.990;-1.608;2023-07-29T09:19:50;23.60;64.50
49379;DHT22;35254;47.990;-1.608;2023-07-29T09:22:20;23.60;64.30
49379;DHT22;35254;47.990;-1.608;2023-07-29T09:24:46;23.60;64.20
49379;DHT22;35254;47.990;-1.608;2023-07-29T09:27:28;23.70;64.20
49379;DHT22;35254;47.990;-1.608;2023-07-29T09:29:57;23.70;64.00
49379;DHT22;35254;47.990;-1.608;2023-07-29T09:32:24;23.70;64.00
49379;DHT22;35254;47.990;-1.608;2023-07-29T09:34:51;23.70;64.00
49379;DHT22;35254;47.990;-1.608;2023-07-29T09:37:25;23.70;63.80
49379;DHT22;35254;47.990;-1.608;2023-07-29T09:39:51;23.70;63.70
49379;DHT22;35254;47.990;-1.608;2023-07-29T09:42:21;23.70;64.20
49379;DHT22;35254;47.990;-1.608;2023-07-29T09:44:49;23.70;64.70
49379;DHT22;35254;47.990;-1.608;2023-07-29T09:47:25;23.70;64.80
49379;DHT22;35254;47.990;-1.608;2023-07-29T09:49:52;23.70;64.70
49379;DHT22;35254;47.990;-1.608;2023-07-29T09:52:19;23.70;64.80
49379;DHT22;35254;47.990;-1.608;2023-07-29T09:54:45;23.70;64.80
49379;DHT22;35254;47.990;-1.608;2023-07-29T09:57:14;23.70;64.90
49379;DHT22;35254;47.990;-1.608;2023-07-29T09:59:40;23.70;65.00
49379;DHT22;35254;47.990;-1.608;2023-07-29T10:02:13;23.70;64.80
49379;DHT22;35254;47.990;-1.608;2023-07-29T10:04:42;23.70;65.00
49379;DHT22;35254;47.990;-1.608;2023-07-29T10:07:09;23.70;65.00
49379;DHT22;35254;47.990;-1.608;2023-07-29T10:09:36;23.70;65.00
49379;DHT22;35254;47.990;-1.608;2023-07-29T10:12:03;23.70;65.00
49379;DHT22;35254;47.990;-1.608;2023-07-29T10:14:31;23.70;65.00
49379;DHT22;35254;47.990;-1.608;2023-07-29T10:16:57;23.70;64.90
49379;DHT22;35254;47.990;-1.608;2023-07-29T10:19:24;23.70;65.00
49379;DHT22;35254;47.990;-1.608;2023-07-29T10:21:51;23.70;65.10
49379;DHT22;35254;47.990;-1.608;2023-07-29T10:24:19;23.70;65.10
49379;DHT22;35254;47.990;-1.608;2023-07-29T10:26:49;23.70;65.10
49379;DHT22;35254;47.990;-1.608;2023-07-29T10:29:19;23.70;64.90
49379;DHT22;35254;47.990;-1.608;2023-07-29T10:31:47;23.70;65.00
49379;DHT22;35254;47.990;-1.608;2023-07-29T10:34:13;23.70;65.00
49379;DHT22;35254;47.990;-1.608;2023-07-29T10:36:40;23.70;65.20
49379;DHT22;35254;47.990;-1.608;2023-07-29T10:39:07;23.70;65.10
49379;DHT22;35254;47.990;-1.608;2023-07-29T10:49:51;23.70;65.00
49379;DHT22;35254;47.990;-1.608;2023-07-29T10:54:54;23.70;65.10
49379;DHT22;35254;47.990;-1.608;2023-07-29T10:57:39;23.70;65.30
49379;DHT22;35254;47.990;-1.608;2023-07-29T11:00:07;23.70;65.20
49379;DHT22;35254;47.990;-1.608;2023-07-29T11:02:37;23.70;65.10
49379;DHT22;35254;47.990;-1.608;2023-07-29T11:05:17;23.70;65.10
49379;DHT22;35254;47.990;-1.608;2023-07-29T11:07:44;23.70;65.30
49379;DHT22;35254;47.990;-1.608;2023-07-29T11:10:11;23.70;65.30
49379;DHT22;35254;47.990;-1.608;2023-07-29T11:17:40;23.70;65.20
49379;DHT22;35254;47.990;-1.608;2023-07-29T11:20:07;23.70;65.30
49379;DHT22;35254;47.990;-1.608;2023-07-29T11:22:34;23.70;65.40
49379;DHT22;35254;47.990;-1.608;2023-07-29T11:25:00;23.70;65.30
49379;DHT22;35254;47.990;-1.608;2023-07-29T11:27:26;23.70;65.30
49379;DHT22;35254;47.990;-1.608;2023-07-29T11:30:00;23.70;65.30
49379;DHT22;35254;47.990;-1.608;2023-07-29T11:32:27;23.70;65.40
49379;DHT22;35254;47.990;-1.608;2023-07-29T11:34:53;23.70;65.40
49379;DHT22;35254;47.990;-1.608;2023-07-29T11:37:19;23.70;65.10
49379;DHT22;35254;47.990;-1.608;2023-07-29T11:39:46;23.70;65.30
49379;DHT22;35254;47.990;-1.608;2023-07-29T11:42:15;23.70;65.30
49379;DHT22;35254;47.990;-1.608;2023-07-29T11:44:41;23.70;65.40
49379;DHT22;35254;47.990;-1.608;2023-07-29T11:47:08;23.70;65.40
49379;DHT22;35254;47.990;-1.608;2023-07-29T11:49:34;23.70;65.40
49379;DHT22;35254;47.990;-1.608;2023-07-29T11:52:01;23.70;65.20
49379;DHT22;35254;47.990;-1.608;2023-07-29T11:54:27;23.70;65.30
49379;DHT22;35254;47.990;-1.608;2023-07-29T11:56:53;23.70;65.40
49379;DHT22;35254;47.990;-1.608;2023-07-29T11:59:19;23.70;65.50
49379;DHT22;35254;47.990;-1.608;2023-07-29T12:01:45;23.70;65.60
49379;DHT22;35254;47.990;-1.608;2023-07-29T12:04:11;23.70;65.60
49379;DHT22;35254;47.990;-1.608;2023-07-29T12:06:37;23.70;65.60
49379;DHT22;35254;47.990;-1.608;2023-07-29T12:09:03;23.70;65.70
49379;DHT22;35254;47.990;-1.608;2023-07-29T12:11:29;23.70;65.70
49379;DHT22;35254;47.990;-1.608;2023-07-29T12:13:55;23.70;65.70
49379;DHT22;35254;47.990;-1.608;2023-07-29T12:16:21;23.70;65.70
49379;DHT22;35254;47.990;-1.608;2023-07-29T12:18:46;23.70;65.80
49379;DHT22;35254;47.990;-1.608;2023-07-29T12:21:14;23.70;65.80
49379;DHT22;35254;47.990;-1.608;2023-07-29T12:23:40;23.70;65.90
49379;DHT22;35254;47.990;-1.608;2023-07-29T12:26:05;23.70;65.80
49379;DHT22;35254;47.990;-1.608;2023-07-29T12:28:31;23.70;65.90
49379;DHT22;35254;47.990;-1.608;2023-07-29T12:30:57;23.70;66.00
49379;DHT22;35254;47.990;-1.608;2023-07-29T12:33:33;23.70;65.90
49379;DHT22;35254;47.990;-1.608;2023-07-29T12:36:00;23.70;66.00
49379;DHT22;35254;47.990;-1.608;2023-07-29T12:38:27;23.70;66.00
49379;DHT22;35254;47.990;-1.608;2023-07-29T12:40:52;23.70;66.10
49379;DHT22;35254;47.990;-1.608;2023-07-29T12:43:18;23.70;66.20
49379;DHT22;35254;47.990;-1.608;2023-07-29T12:45:44;23.70;66.10
49379;DHT22;35254;47.990;-1.608;2023-07-29T12:48:10;23.70;66.30
49379;DHT22;35254;47.990;-1.608;2023-07-29T12:50:37;23.70;66.20
49379;DHT22;35254;47.990;-1.608;2023-07-29T12:53:03;23.70;66.10
49379;DHT22;35254;47.990;-1.608;2023-07-29T12:55:29;23.80;66.20
49379;DHT22;35254;47.990;-1.608;2023-07-29T12:57:55;23.70;66.20
49379;DHT22;35254;47.990;-1.608;2023-07-29T13:00:20;23.70;66.20
49379;DHT22;35254;47.990;-1.608;2023-07-29T13:02:46;23.70;66.10
49379;DHT22;35254;47.990;-1.608;2023-07-29T13:05:12;23.70;66.10
49379;DHT22;35254;47.990;-1.608;2023-07-29T13:07:39;23.70;66.10
49379;DHT22;35254;47.990;-1.608;2023-07-29T13:10:05;23.70;66.10
49379;DHT22;35254;47.990;-1.608;2023-07-29T13:12:31;23.80;66.20
49379;DHT22;35254;47.990;-1.608;2023-07-29T13:14:57;23.80;66.20
49379;DHT22;35254;47.990;-1.608;2023-07-29T13:17:23;23.70;66.10
49379;DHT22;35254;47.990;-1.608;2023-07-29T13:19:49;23.70;66.10
49379;DHT22;35254;47.990;-1.608;2023-07-29T13:22:14;23.70;66.00
49379;DHT22;35254;47.990;-1.608;2023-07-29T13:24:40;23.70;66.10
49379;DHT22;35254;47.990;-1.608;2023-07-29T13:27:06;23.80;65.90
49379;DHT22;35254;47.990;-1.608;2023-07-29T13:29:32;23.70;65.90
49379;DHT22;35254;47.990;-1.608;2023-07-29T13:31:57;23.80;65.90
49379;DHT22;35254;47.990;-1.608;2023-07-29T13:34:23;23.70;66.10
49379;DHT22;35254;47.990;-1.608;2023-07-29T13:36:48;23.80;66.00
49379;DHT22;35254;47.990;-1.608;2023-07-29T13:39:15;23.70;66.00
49379;DHT22;35254;47.990;-1.608;2023-07-29T13:41:41;23.70;66.10
49379;DHT22;35254;47.990;-1.608;2023-07-29T13:44:06;23.80;65.90
49379;DHT22;35254;47.990;-1.608;2023-07-29T13:46:32;23.80;66.10
49379;DHT22;35254;47.990;-1.608;2023-07-29T13:48:58;23.80;66.10
49379;DHT22;35254;47.990;-1.608;2023-07-29T13:51:23;23.80;66.20
49379;DHT22;35254;47.990;-1.608;2023-07-29T13:53:49;23.80;66.30
49379;DHT22;35254;47.990;-1.608;2023-07-29T13:56:14;23.80;66.20
49379;DHT22;35254;47.990;-1.608;2023-07-29T13:58:40;23.80;66.20
49379;DHT22;35254;47.990;-1.608;2023-07-29T14:01:06;23.70;66.20
49379;DHT22;35254;47.990;-1.608;2023-07-29T14:03:32;23.80;66.10
49379;DHT22;35254;47.990;-1.608;2023-07-29T14:05:57;23.80;66.10
49379;DHT22;35254;47.990;-1.608;2023-07-29T14:08:23;23.80;66.10
49379;DHT22;35254;47.990;-1.608;2023-07-29T14:10:49;23.80;66.10
49379;DHT22;35254;47.990;-1.608;2023-07-29T14:13:15;23.70;66.20
49379;DHT22;35254;47.990;-1.608;2023-07-29T14:15:40;23.70;66.20
49379;DHT22;35254;47.990;-1.608;2023-07-29T14:18:06;23.70;66.10
49379;DHT22;35254;47.990;-1.608;2023-07-29T14:20:32;23.80;66.00
49379;DHT22;35254;47.990;-1.608;2023-07-29T14:22:58;23.80;66.00
49379;DHT22;35254;47.990;-1.608;2023-07-29T14:25:23;23.80;66.00
49379;DHT22;35254;47.990;-1.608;2023-07-29T14:27:50;23.70;66.10
49379;DHT22;35254;47.990;-1.608;2023-07-29T14:30:15;23.70;66.10
49379;DHT22;35254;47.990;-1.608;2023-07-29T14:32:41;23.80;66.00
49379;DHT22;35254;47.990;-1.608;2023-07-29T14:35:07;23.80;66.10
49379;DHT22;35254;47.990;-1.608;2023-07-29T14:37:34;23.80;66.20
49379;DHT22;35254;47.990;-1.608;2023-07-29T14:40:00;23.80;66.20
49379;DHT22;35254;47.990;-1.608;2023-07-29T14:42:26;23.80;66.30
49379;DHT22;35254;47.990;-1.608;2023-07-29T14:44:52;23.80;66.10
49379;DHT22;35254;47.990;-1.608;2023-07-29T14:47:17;23.80;66.10
49379;DHT22;35254;47.990;-1.608;2023-07-29T14:49:44;23.80;66.10
49379;DHT22;35254;47.990;-1.608;2023-07-29T14:52:10;23.80;66.20
49379;DHT22;35254;47.990;-1.608;2023-07-29T14:54:36;23.80;66.20
49379;DHT22;35254;47.990;-1.608;2023-07-29T14:57:02;23.80;66.40
49379;DHT22;35254;47.990;-1.608;2023-07-29T14:59:27;23.80;66.50
49379;DHT22;35254;47.990;-1.608;2023-07-29T15:01:53;23.80;66.30
49379;DHT22;35254;47.990;-1.608;2023-07-29T15:04:18;23.80;66.30
49379;DHT22;35254;47.990;-1.608;2023-07-29T15:06:44;23.80;66.30
49379;DHT22;35254;47.990;-1.608;2023-07-29T15:09:10;23.80;66.10
49379;DHT22;35254;47.990;-1.608;2023-07-29T15:11:35;23.80;66.30
49379;DHT22;35254;47.990;-1.608;2023-07-29T15:14:02;23.80;66.40
49379;DHT22;35254;47.990;-1.608;2023-07-29T15:16:29;23.80;66.50
49379;DHT22;35254;47.990;-1.608;2023-07-29T15:18:54;23.80;66.60
49379;DHT22;35254;47.990;-1.608;2023-07-29T15:21:20;23.80;66.40
49379;DHT22;35254;47.990;-1.608;2023-07-29T15:23:46;23.80;66.60
49379;DHT22;35254;47.990;-1.608;2023-07-29T15:26:11;23.80;66.50
49379;DHT22;35254;47.990;-1.608;2023-07-29T15:28:37;23.90;66.60
49379;DHT22;35254;47.990;-1.608;2023-07-29T15:31:03;23.80;66.60
49379;DHT22;35254;47.990;-1.608;2023-07-29T15:33:29;23.80;66.60